Delray Beach, FL

8:46 AM EDT on September 30, 2014 (GMT -0400)
Lake Ida | Change Station
CLOSE
Current Station
Personal Weather Station
Location: Delray Beach, FL
Elevation: 10 ft
Nearby Weather Stations

Elev 10 ft 26.47 °N, 80.08 °W | Updated 7 seconds ago

Partly Cloudy
Partly Cloudy
77.0 °F
Feels Like 78 °F
N
2.0
Wind Variable Wind from West
Gusts 3.0 mph

Today
High -- | Low -- °F
--% Chance of Precip.
Yesterday
High -- | Low -- °F
Precip. -- in
7:12 AM 7:07 PM
Waxing Crescent, 36% visible
Pressure 29.87 in
Visibility 9.0 miles
Clouds Clear
Heat Index 78 °F
Dew Point 76 °F
Humidity 96%
Rainfall 0.25 in
Snow Depth Not available.
UV 0 out of 12
Pollen 3.90 out of 12
Ozone Good
PM2.5 Good
Flu Activity Not available.
METAR KPMP 301153Z 21004KT 9SM CLR 26/24 A2986 RMK AO2 SLP114 70061 T02560244 10261 20250 53010

More Conditions Fewer Conditions

Pressure 29.87 in
Visibility 9.0 miles
Clouds Clear
Heat Index 78 °F
Dew Point 76 °F
Humidity 96%
Rainfall 0.25 in
Snow Depth Not available.
UV 0 out of 12
Pollen 3.90 out of 12
Ozone Good
PM2.5 Good
Flu Activity Not available.
METAR KPMP 301153Z 21004KT 9SM CLR 26/24 A2986 RMK AO2 SLP114 70061 T02560244 10261 20250 53010

More Conditions Fewer Conditions

10-Day Weather Forecast

Almanac

Astronomy

Sep. 30, 2014 Rise Set
Actual Time 7:12 AM EDT 7:07 PM EDT
Civil Twilight 6:49 AM EDT 7:30 PM EDT
Nautical Twilight 6:22 AM EDT 7:57 PM EDT
Astronomical Twilight 5:55 AM EDT 8:24 PM EDT
Moon 12:54 PM EDT No Moon Set
Length of Visible Light 12h 41m
Length of Day
11h 55m
Tomorrow will be 1m 32s shorter.
Waxing Crescent, 36% of the Moon is Illuminated
Today
Waxing Crescent
Oct 1
First Quarter
Oct 8
Full
Oct 15
Last Quarter
Oct 23
New

Today's Extremes

State Highs State Lows

Community

WunderPhotos

Upload Photos

1,757,625 photos uploaded!

Nearby

Air Quality

  Air Quality AQ Index Pollutant
Yesterday Good
OZONE
Yesterday Good
PM2.5
Current Good
PM2.5
Current Good
OZONE
Tuesday Good
OZONE
Tuesday Good
PM2.5

Snow Depth

Station Depth Elevation
No new snow has been reported.

Earthquake Activity

City Distance Mag. Time & Date
No recent earthquake activity has been reported nearby.
Minimum magnitude displayed is 2.5.

Coastal Water Temperatures

Place Temperature
Lake Worth, FL 84.9 °F
Virginia Key, FL 84.0 °F

Nearby Weather Stations